createdAt,value
2023-06-04T00:00:22.024Z,15.00
2023-06-04T00:03:23.767Z,14.80
2023-06-04T00:06:25.542Z,16.10
2023-06-04T00:09:27.146Z,14.70
2023-06-04T00:12:28.728Z,14.60
2023-06-04T00:15:30.475Z,14.60
2023-06-04T00:18:32.183Z,14.60
2023-06-04T00:21:33.871Z,14.30
2023-06-04T00:24:38.515Z,16.20
2023-06-04T00:27:40.267Z,14.60
2023-06-04T00:30:41.862Z,14.80
2023-06-04T00:33:43.434Z,14.30
2023-06-04T00:36:45.098Z,14.10
2023-06-04T00:39:46.698Z,14.60
2023-06-04T00:42:50.313Z,15.20
2023-06-04T00:45:53.192Z,14.30
2023-06-04T00:48:56.158Z,14.30
2023-06-04T00:51:57.775Z,13.90
2023-06-04T00:54:59.432Z,14.40
2023-06-04T00:58:02.077Z,14.20
2023-06-04T01:01:07.219Z,14.10
2023-06-04T01:04:18.398Z,14.70
2023-06-04T01:07:20.789Z,13.60
2023-06-04T01:10:23.246Z,13.30
2023-06-04T01:13:25.762Z,13.70
2023-06-04T01:16:29.853Z,15.00
2023-06-04T01:20:09.436Z,13.70
2023-06-04T01:23:28.197Z,13.70
2023-06-04T01:26:32.207Z,13.20
2023-06-04T01:29:37.436Z,13.20
2023-06-04T01:32:39.072Z,13.40
2023-06-04T01:35:40.853Z,13.50
2023-06-04T01:38:42.514Z,13.40
2023-06-04T01:41:44.152Z,13.80
2023-06-04T01:44:45.744Z,13.30
2023-06-04T01:47:47.513Z,13.20
2023-06-04T01:50:49.132Z,13.30
2023-06-04T01:53:51.054Z,13.40
2023-06-04T01:56:52.703Z,13.00
2023-06-04T01:59:54.313Z,13.40
2023-06-04T02:02:57.174Z,13.40
2023-06-04T02:05:59.064Z,14.30
2023-06-04T02:09:01.594Z,13.40
2023-06-04T02:12:03.641Z,12.80
2023-06-04T02:15:06.047Z,13.10
2023-06-04T02:18:19.157Z,13.10
2023-06-04T02:21:20.823Z,13.20
2023-06-04T02:24:23.174Z,13.20
2023-06-04T02:27:24.876Z,12.90
2023-06-04T02:30:26.502Z,13.20
2023-06-04T02:33:28.273Z,13.00
2023-06-04T02:36:30.357Z,12.90
2023-06-04T02:39:32.145Z,13.00
2023-06-04T02:42:33.714Z,13.20
2023-06-04T02:45:35.399Z,12.90
2023-06-04T02:48:36.998Z,13.20
2023-06-04T02:51:38.696Z,13.10
2023-06-04T02:54:40.256Z,12.50
2023-06-04T02:57:43.577Z,12.70
2023-06-04T03:00:46.080Z,12.50
2023-06-04T03:03:48.582Z,12.80
2023-06-04T03:06:58.621Z,12.90
2023-06-04T03:10:00.688Z,12.60
2023-06-04T03:13:02.399Z,13.00
2023-06-04T03:16:04.216Z,12.70
2023-06-04T03:19:05.817Z,12.50
2023-06-04T03:22:08.904Z,12.40
2023-06-04T03:25:10.831Z,12.20
2023-06-04T03:28:12.452Z,12.40
2023-06-04T03:31:14.116Z,12.20
2023-06-04T03:34:15.705Z,12.40
2023-06-04T03:37:18.512Z,13.30
2023-06-04T03:40:20.363Z,12.60
2023-06-04T03:43:22.288Z,14.00
2023-06-04T03:46:26.316Z,12.30
2023-06-04T03:49:28.349Z,12.00
2023-06-04T03:52:29.931Z,12.20
2023-06-04T03:55:33.151Z,12.20
2023-06-04T03:58:37.325Z,12.30
2023-06-04T04:01:39.499Z,12.20
2023-06-04T04:04:41.209Z,12.70
2023-06-04T04:07:42.941Z,12.40
2023-06-04T04:10:44.875Z,11.90
2023-06-04T04:13:47.336Z,12.20
2023-06-04T04:16:49.037Z,12.10
2023-06-04T04:19:50.664Z,13.70
2023-06-04T04:22:52.475Z,12.40
2023-06-04T04:25:54.456Z,12.30
2023-06-04T04:28:59.167Z,12.50
2023-06-04T04:32:02.030Z,12.60
2023-06-04T04:35:04.771Z,12.20
2023-06-04T04:38:06.740Z,12.50
2023-06-04T04:41:09.526Z,12.60
2023-06-04T04:44:11.286Z,12.40
2023-06-04T04:47:13.014Z,12.70
2023-06-04T04:50:14.739Z,12.20
2023-06-04T04:53:16.314Z,12.50
2023-06-04T04:56:17.895Z,12.30
2023-06-04T04:59:19.475Z,12.20
2023-06-04T05:02:21.149Z,14.10
2023-06-04T05:05:23.006Z,14.00
2023-06-04T05:08:24.616Z,12.60
2023-06-04T05:11:26.706Z,12.40
2023-06-04T05:14:29.605Z,12.80
2023-06-04T05:17:31.598Z,12.70
2023-06-04T05:20:33.339Z,12.60
2023-06-04T05:23:35.667Z,12.80
2023-06-04T05:26:38.102Z,12.70
2023-06-04T05:29:39.683Z,13.20
2023-06-04T05:32:42.346Z,12.80
2023-06-04T05:35:47.528Z,12.80
2023-06-04T05:38:49.145Z,12.90
2023-06-04T05:41:50.747Z,13.80
2023-06-04T05:44:52.771Z,13.30
2023-06-04T05:47:55.664Z,13.30
2023-06-04T05:50:57.412Z,13.50
2023-06-04T05:53:58.999Z,13.20
2023-06-04T05:57:00.738Z,13.40
2023-06-04T06:00:03.752Z,13.40
2023-06-04T06:03:07.614Z,13.30
2023-06-04T06:06:11.291Z,13.50
2023-06-04T06:09:13.145Z,13.90
2023-06-04T06:12:14.787Z,13.50
2023-06-04T06:15:16.468Z,13.20
2023-06-04T06:18:18.176Z,14.10
2023-06-04T06:21:19.790Z,14.20
2023-06-04T06:24:21.414Z,14.20
2023-06-04T06:27:22.980Z,14.30
2023-06-04T06:30:24.776Z,14.60
2023-06-04T06:33:26.488Z,14.30
2023-06-04T06:36:29.651Z,15.00
2023-06-04T06:39:31.321Z,15.10
2023-06-04T06:42:35.971Z,15.20
2023-06-04T06:45:38.271Z,15.30
2023-06-04T06:48:39.845Z,15.30
2023-06-04T06:51:41.671Z,15.40
2023-06-04T06:54:43.278Z,15.80
2023-06-04T06:57:45.378Z,15.70
2023-06-04T07:00:47.057Z,16.80
2023-06-04T07:03:48.708Z,15.50
2023-06-04T07:06:50.684Z,16.00
2023-06-04T07:09:52.549Z,16.30
2023-06-04T07:12:54.120Z,16.10
2023-06-04T07:15:55.808Z,16.30
2023-06-04T07:18:57.450Z,16.10
2023-06-04T07:21:59.054Z,16.60
2023-06-04T07:25:00.953Z,17.80
2023-06-04T07:28:04.827Z,17.00
2023-06-04T07:31:06.674Z,17.10
2023-06-04T07:34:08.553Z,19.20
2023-06-04T07:37:10.720Z,17.00
2023-06-04T07:40:12.866Z,17.20
2023-06-04T07:43:14.546Z,17.20
2023-06-04T07:46:19.643Z,17.70
2023-06-04T07:49:21.389Z,17.50
2023-06-04T07:52:23.053Z,19.00
2023-06-04T07:55:24.968Z,19.80
2023-06-04T07:58:26.668Z,18.60
2023-06-04T08:01:28.362Z,18.60
2023-06-04T08:04:30.201Z,17.90
2023-06-04T08:07:31.888Z,19.20
2023-06-04T08:10:33.607Z,19.90
2023-06-04T08:13:35.231Z,18.10
2023-06-04T08:16:36.848Z,18.30
2023-06-04T08:19:38.548Z,18.20
2023-06-04T08:22:40.223Z,18.60
2023-06-04T08:25:42.260Z,18.40
2023-06-04T08:28:44.001Z,18.70
2023-06-04T08:31:46.064Z,19.90
2023-06-04T08:34:47.769Z,18.80
2023-06-04T08:37:49.437Z,18.80
2023-06-04T08:40:54.202Z,19.90
2023-06-04T08:44:00.916Z,18.80
2023-06-04T08:47:05.569Z,20.10
2023-06-04T08:50:10.790Z,19.00
2023-06-04T08:53:14.066Z,19.30
2023-06-04T08:56:15.833Z,19.40
2023-06-04T08:59:17.540Z,19.80
2023-06-04T09:02:19.256Z,19.60
2023-06-04T09:05:22.741Z,19.60
2023-06-04T09:08:26.678Z,19.80
2023-06-04T09:11:36.260Z,21.50
2023-06-04T09:14:37.928Z,19.90
2023-06-04T09:17:39.620Z,20.50
2023-06-04T09:20:41.263Z,20.00
2023-06-04T09:23:48.118Z,19.70
2023-06-04T09:26:50.399Z,19.70
2023-06-04T09:29:56.348Z,20.80
2023-06-04T09:33:07.957Z,21.50
2023-06-04T09:36:09.579Z,21.30
2023-06-04T09:39:17.818Z,22.40
2023-06-04T09:42:19.462Z,21.10
2023-06-04T09:45:35.538Z,22.10
2023-06-04T09:48:37.177Z,20.60
2023-06-04T09:51:49.443Z,21.60
2023-06-04T09:54:51.414Z,22.10
2023-06-04T09:57:54.258Z,22.80
2023-06-04T10:00:58.044Z,20.70
2023-06-04T10:04:04.557Z,20.90
2023-06-04T10:07:09.220Z,20.60
2023-06-04T10:10:16.187Z,20.90
2023-06-04T10:13:20.187Z,22.20
2023-06-04T10:16:33.568Z,21.00
2023-06-04T10:19:41.231Z,21.10
2023-06-04T10:22:43.679Z,22.40
2023-06-04T10:25:46.417Z,21.10
2023-06-04T10:28:48.034Z,21.20
2023-06-04T10:31:54.215Z,21.50
2023-06-04T10:34:56.355Z,21.20
2023-06-04T10:38:12.323Z,21.50
2023-06-04T10:41:18.393Z,21.60
2023-06-04T10:44:20.147Z,21.50
2023-06-04T10:47:23.089Z,22.80
2023-06-04T10:50:27.039Z,21.80
2023-06-04T10:53:37.876Z,21.60
2023-06-04T10:56:39.501Z,23.30
2023-06-04T10:59:41.289Z,21.40
2023-06-04T11:02:56.535Z,21.70
2023-06-04T11:05:58.677Z,21.80
2023-06-04T11:09:06.712Z,22.20
2023-06-04T11:12:08.539Z,21.50
2023-06-04T11:15:11.214Z,22.10
2023-06-04T11:18:19.924Z,22.00
2023-06-04T11:21:22.052Z,21.90
2023-06-04T11:24:27.052Z,22.00
2023-06-04T11:30:37.140Z,22.90
2023-06-04T11:33:49.029Z,22.10
2023-06-04T11:36:50.722Z,23.80
2023-06-04T11:39:52.317Z,22.20
2023-06-04T11:42:54.116Z,22.00
2023-06-04T11:45:56.447Z,22.40
2023-06-04T11:48:58.284Z,22.10
2023-06-04T11:52:01.206Z,22.20
2023-06-04T11:55:03.056Z,22.50
2023-06-04T11:58:05.006Z,22.40
2023-06-04T12:01:07.349Z,22.80
2023-06-04T12:04:17.385Z,22.60
2023-06-04T12:07:26.393Z,25.10
2023-06-04T12:10:29.733Z,22.80
2023-06-04T12:13:41.957Z,24.10
2023-06-04T12:16:43.959Z,22.80
2023-06-04T12:19:50.036Z,22.80
2023-06-04T12:22:53.201Z,22.70
2023-06-04T12:25:55.031Z,23.10
2023-06-04T12:29:07.762Z,22.80
2023-06-04T12:32:12.567Z,22.80
2023-06-04T12:35:16.744Z,23.20
2023-06-04T12:38:18.407Z,23.40
2023-06-04T12:41:20.020Z,23.00
2023-06-04T12:44:22.186Z,24.80
2023-06-04T12:47:23.820Z,23.80
2023-06-04T12:50:25.611Z,23.00
2023-06-04T12:53:27.293Z,23.80
2023-06-04T12:56:28.917Z,23.30
2023-06-04T12:59:30.570Z,24.80
2023-06-04T13:02:32.500Z,23.50
2023-06-04T13:05:34.245Z,23.60
2023-06-04T13:08:37.036Z,23.60
2023-06-04T13:11:40.130Z,23.80
2023-06-04T13:14:42.089Z,23.90
2023-06-04T13:17:43.695Z,24.20
2023-06-04T13:20:45.309Z,24.10
2023-06-04T13:23:50.869Z,24.30
2023-06-04T13:26:53.020Z,25.10
2023-06-04T13:29:54.681Z,26.10
2023-06-04T13:32:56.773Z,24.50
2023-06-04T13:35:58.439Z,25.70
2023-06-04T13:39:00.132Z,24.70
2023-06-04T13:42:01.873Z,24.70
2023-06-04T13:45:04.189Z,25.20
2023-06-04T13:48:08.187Z,24.80
2023-06-04T13:51:10.238Z,26.10
2023-06-04T13:54:13.476Z,26.90
2023-06-04T13:57:15.366Z,25.10
2023-06-04T14:00:17.167Z,25.80
2023-06-04T14:03:18.861Z,25.90
2023-06-04T14:06:20.772Z,28.90
2023-06-04T14:09:22.466Z,26.30
2023-06-04T14:12:25.008Z,28.80
2023-06-04T14:15:26.669Z,28.40
2023-06-04T14:18:28.270Z,27.20
2023-06-04T14:21:30.191Z,28.40
2023-06-04T14:24:31.900Z,27.50
2023-06-04T14:27:34.581Z,29.00
2023-06-04T14:30:36.258Z,29.10
2023-06-04T14:33:38.189Z,29.20
2023-06-04T14:36:39.930Z,28.00
2023-06-04T14:39:41.703Z,27.90
2023-06-04T14:42:43.334Z,29.50
2023-06-04T14:45:45.074Z,27.90
2023-06-04T14:48:46.696Z,28.20
2023-06-04T14:51:48.326Z,28.30
2023-06-04T14:54:49.932Z,27.90
2023-06-04T14:57:51.977Z,29.30
2023-06-04T15:00:53.648Z,27.60
2023-06-04T15:03:55.275Z,28.80
2023-06-04T15:06:56.928Z,28.50
2023-06-04T15:09:58.777Z,28.40
2023-06-04T15:13:00.619Z,29.10
2023-06-04T15:16:02.337Z,27.80
2023-06-04T15:19:04.283Z,28.10
2023-06-04T15:22:06.104Z,27.60
2023-06-04T15:25:08.526Z,29.30
2023-06-04T15:28:10.124Z,26.70
2023-06-04T15:31:12.051Z,26.20
2023-06-04T15:34:13.942Z,25.90
2023-06-04T15:37:15.569Z,25.60
2023-06-04T15:40:17.143Z,24.70
2023-06-04T15:43:18.841Z,26.50
2023-06-04T15:46:25.229Z,24.30
2023-06-04T15:49:28.433Z,25.50
2023-06-04T15:52:30.133Z,24.40
2023-06-04T15:55:31.754Z,23.80
2023-06-04T15:58:33.508Z,23.60
2023-06-04T16:01:35.169Z,23.70
2023-06-04T16:04:36.830Z,24.90
2023-06-04T16:07:38.791Z,23.50
2023-06-04T16:10:42.062Z,23.50
2023-06-04T16:13:43.790Z,23.30
2023-06-04T16:16:47.696Z,25.10
2023-06-04T16:19:49.530Z,25.10
2023-06-04T16:22:51.384Z,24.60
2023-06-04T16:25:53.366Z,22.90
2023-06-04T16:28:55.029Z,23.80
2023-06-04T16:31:56.660Z,22.80
2023-06-04T16:34:58.338Z,22.60
2023-06-04T16:38:00.658Z,22.70
2023-06-04T16:41:02.285Z,22.90
2023-06-04T16:44:04.066Z,22.50
2023-06-04T16:47:06.056Z,24.10
2023-06-04T16:50:08.291Z,22.50
2023-06-04T16:53:10.726Z,22.60
2023-06-04T16:56:12.646Z,22.90
2023-06-04T16:59:14.288Z,23.20
2023-06-04T17:02:16.116Z,22.90
2023-06-04T17:05:25.178Z,24.00
2023-06-04T17:08:27.607Z,22.60
2023-06-04T17:11:29.560Z,23.30
2023-06-04T17:14:31.259Z,23.80
2023-06-04T17:17:33.203Z,22.20
2023-06-04T17:20:34.847Z,23.90
2023-06-04T17:23:39.108Z,22.00
2023-06-04T17:26:40.850Z,22.20
2023-06-04T17:29:43.596Z,22.10
2023-06-04T17:32:46.579Z,22.30
2023-06-04T17:35:48.250Z,23.80
2023-06-04T17:38:50.760Z,22.10
2023-06-04T17:41:52.363Z,22.20
2023-06-04T17:44:53.988Z,22.30
2023-06-04T17:47:55.986Z,22.60
2023-06-04T17:50:57.791Z,22.10
2023-06-04T17:54:00.661Z,22.60
2023-06-04T17:57:02.486Z,22.20
2023-06-04T18:00:04.568Z,24.20
2023-06-04T18:03:06.313Z,24.20
2023-06-04T18:06:08.206Z,26.10
2023-06-04T18:09:10.138Z,24.70
2023-06-04T18:12:11.889Z,23.00
2023-06-04T18:15:16.704Z,22.60
2023-06-04T18:18:18.329Z,22.80
2023-06-04T18:21:20.036Z,22.20
2023-06-04T18:24:21.714Z,22.00
2023-06-04T18:27:23.357Z,22.00
2023-06-04T18:30:25.011Z,21.90
2023-06-04T18:33:26.754Z,21.80
2023-06-04T18:36:29.230Z,21.60
2023-06-04T18:39:30.833Z,21.80
2023-06-04T18:42:32.458Z,21.70
2023-06-04T18:45:34.146Z,21.40
2023-06-04T18:48:35.832Z,22.20
2023-06-04T18:51:37.628Z,21.80
2023-06-04T18:54:39.308Z,21.20
2023-06-04T18:57:40.888Z,23.20
2023-06-04T19:00:42.544Z,21.20
2023-06-04T19:03:47.420Z,20.90
2023-06-04T19:06:49.037Z,21.00
2023-06-04T19:09:50.902Z,21.00
2023-06-04T19:12:52.543Z,22.20
2023-06-04T19:15:54.275Z,20.80
2023-06-04T19:18:55.892Z,20.70
2023-06-04T19:22:00.431Z,20.70
2023-06-04T19:25:40.887Z,20.30
2023-06-04T19:28:51.552Z,18.80
2023-06-04T19:31:53.251Z,19.50
2023-06-04T19:34:55.906Z,20.70
2023-06-04T19:37:57.583Z,20.50
2023-06-04T19:40:59.195Z,20.10
2023-06-04T19:44:00.893Z,21.40
2023-06-04T19:47:02.613Z,20.20
2023-06-04T19:50:04.966Z,20.40
2023-06-04T19:53:06.670Z,20.00
2023-06-04T19:56:08.555Z,19.90
2023-06-04T19:59:10.345Z,19.90
2023-06-04T20:02:12.019Z,21.30
2023-06-04T20:05:16.214Z,20.20
2023-06-04T20:08:18.002Z,19.50
2023-06-04T20:11:19.717Z,19.60
2023-06-04T20:14:23.531Z,19.60
2023-06-04T20:17:25.640Z,19.80
2023-06-04T20:20:27.399Z,19.60
2023-06-04T20:23:29.159Z,20.30
2023-06-04T20:26:31.040Z,19.60
2023-06-04T20:29:32.754Z,19.50
2023-06-04T20:32:34.402Z,19.70
2023-06-04T20:35:36.060Z,21.20
2023-06-04T20:38:37.834Z,19.50
2023-06-04T20:41:39.492Z,21.20
2023-06-04T20:44:41.518Z,19.30
2023-06-04T20:47:43.255Z,20.40
2023-06-04T20:50:44.911Z,19.50
2023-06-04T20:53:48.223Z,19.40
2023-06-04T20:56:49.868Z,19.20
2023-06-04T20:59:51.598Z,19.80
2023-06-04T21:02:53.299Z,19.40
2023-06-04T21:05:56.027Z,18.60
2023-06-04T21:08:57.748Z,19.10
2023-06-04T21:11:59.367Z,19.00
2023-06-04T21:15:01.033Z,20.60
2023-06-04T21:18:02.697Z,18.70
2023-06-04T21:21:04.466Z,19.30
2023-06-04T21:24:06.401Z,18.70
2023-06-04T21:27:08.110Z,18.70
2023-06-04T21:30:09.942Z,18.70
2023-06-04T21:33:11.703Z,18.70
2023-06-04T21:36:16.570Z,20.30
2023-06-04T21:39:18.258Z,18.60
2023-06-04T21:42:19.834Z,18.20
2023-06-04T21:45:21.732Z,18.50
2023-06-04T21:48:23.909Z,19.10
2023-06-04T21:51:25.872Z,18.40
2023-06-04T21:54:27.506Z,18.30
2023-06-04T21:57:29.114Z,18.10
2023-06-04T22:00:30.720Z,18.40
2023-06-04T22:03:32.512Z,18.10
2023-06-04T22:06:34.335Z,18.00
2023-06-04T22:09:36.044Z,17.70
2023-06-04T22:12:37.619Z,18.40
2023-06-04T22:15:40.057Z,20.00
2023-06-04T22:21:50.031Z,18.00
2023-06-04T22:24:51.634Z,17.30
2023-06-04T22:27:53.262Z,17.50
2023-06-04T22:30:54.919Z,18.70
2023-06-04T22:33:56.531Z,17.60
2023-06-04T22:36:58.132Z,17.30
2023-06-04T22:40:01.595Z,17.40
2023-06-04T22:43:03.332Z,17.30
2023-06-04T22:46:05.188Z,18.60
2023-06-04T22:49:06.878Z,17.40
2023-06-04T22:52:08.853Z,17.20
2023-06-04T22:55:11.433Z,19.30
2023-06-04T22:58:13.484Z,17.60
2023-06-04T23:01:16.093Z,17.50
2023-06-04T23:04:17.671Z,17.10
2023-06-04T23:07:19.449Z,17.10
2023-06-04T23:10:21.103Z,17.00
2023-06-04T23:13:22.880Z,16.80
2023-06-04T23:16:24.572Z,16.90
2023-06-04T23:19:26.210Z,16.70
2023-06-04T23:22:27.785Z,16.80
2023-06-04T23:25:29.511Z,16.70
2023-06-04T23:28:31.354Z,16.70
2023-06-04T23:31:32.992Z,16.30
2023-06-04T23:34:34.671Z,16.40
2023-06-04T23:37:36.993Z,16.50
2023-06-04T23:40:38.675Z,16.60
2023-06-04T23:43:40.445Z,16.30
2023-06-04T23:46:42.050Z,16.70
2023-06-04T23:49:45.261Z,16.20
2023-06-04T23:52:46.878Z,16.20
2023-06-04T23:55:48.675Z,15.90
2023-06-04T23:58:50.735Z,17.20
